createdAt,value
2022-10-19T00:01:05.322Z,89.08
2022-10-19T00:03:33.135Z,88.52
2022-10-19T00:06:00.367Z,88.60
2022-10-19T00:08:27.490Z,88.52
2022-10-19T00:10:53.940Z,88.46
2022-10-19T00:13:20.330Z,88.49
2022-10-19T00:15:46.684Z,88.34
2022-10-19T00:18:13.085Z,88.43
2022-10-19T00:20:39.452Z,88.45
2022-10-19T00:23:05.828Z,88.49
2022-10-19T00:25:32.283Z,88.21
2022-10-19T00:27:58.667Z,88.21
2022-10-19T00:30:25.184Z,88.05
2022-10-19T00:32:51.579Z,88.16
2022-10-19T00:35:17.940Z,88.25
2022-10-19T00:37:44.278Z,87.95
2022-10-19T00:40:11.248Z,87.83
2022-10-19T00:42:37.657Z,87.75
2022-10-19T00:45:17.661Z,87.79
2022-10-19T00:47:44.990Z,87.31
2022-10-19T00:50:14.707Z,87.44
2022-10-19T00:52:41.670Z,87.00
2022-10-19T00:55:09.045Z,86.98
2022-10-19T00:57:36.007Z,86.95
2022-10-19T01:00:06.346Z,87.26
2022-10-19T01:02:32.938Z,87.11
2022-10-19T01:05:00.066Z,87.03
2022-10-19T01:07:26.828Z,86.85
2022-10-19T01:09:54.517Z,86.85
2022-10-19T01:12:20.875Z,86.72
2022-10-19T01:15:15.567Z,87.81
2022-10-19T01:17:58.662Z,87.59
2022-10-19T01:20:52.807Z,87.56
2022-10-19T01:23:29.869Z,86.24
2022-10-19T01:26:14.637Z,87.17
2022-10-19T01:29:18.794Z,87.08
2022-10-19T01:32:02.784Z,86.99
2022-10-19T01:34:40.417Z,86.31
2022-10-19T01:37:35.795Z,86.61
2022-10-19T01:40:15.059Z,85.66
2022-10-19T01:45:24.437Z,85.52
2022-10-19T01:47:58.128Z,84.56
2022-10-19T01:50:35.539Z,84.76
2022-10-19T01:53:05.982Z,84.05
2022-10-19T01:55:33.282Z,84.17
2022-10-19T01:58:09.523Z,83.43
2022-10-19T02:00:41.090Z,82.88
2022-10-19T02:03:10.157Z,82.59
2022-10-19T02:05:38.518Z,82.01
2022-10-19T02:08:12.113Z,81.94
2022-10-19T02:10:42.551Z,81.37
2022-10-19T02:13:11.194Z,80.62
2022-10-19T02:15:43.644Z,80.86
2022-10-19T02:18:13.815Z,80.10
2022-10-19T02:20:40.169Z,79.64
2022-10-19T02:23:07.184Z,79.24
2022-10-19T02:25:34.591Z,78.81
2022-10-19T02:28:03.764Z,78.87
2022-10-19T02:30:32.307Z,78.59
2022-10-19T02:32:58.844Z,77.96
2022-10-19T02:35:25.459Z,77.60
2022-10-19T02:37:51.906Z,76.95
2022-10-19T02:40:18.559Z,76.44
2022-10-19T02:42:52.326Z,76.28
2022-10-19T02:45:24.198Z,75.46
2022-10-19T02:48:11.324Z,75.17
2022-10-19T02:50:37.861Z,73.54
2022-10-19T02:53:04.241Z,72.93
2022-10-19T02:55:31.036Z,72.56
2022-10-19T02:57:57.868Z,72.59
2022-10-19T03:00:24.242Z,71.94
2022-10-19T03:02:50.636Z,71.76
2022-10-19T03:05:17.190Z,71.81
2022-10-19T03:07:43.761Z,71.61
2022-10-19T03:10:10.164Z,71.32
2022-10-19T03:12:36.817Z,71.36
2022-10-19T03:15:04.339Z,71.38
2022-10-19T03:17:30.769Z,71.32
2022-10-19T03:19:57.257Z,71.35
2022-10-19T03:22:23.625Z,71.58
2022-10-19T03:24:50.222Z,71.29
2022-10-19T03:27:19.844Z,71.84
2022-10-19T03:29:46.582Z,71.72
2022-10-19T03:32:13.003Z,71.85
2022-10-19T03:34:39.450Z,72.25
2022-10-19T03:37:06.250Z,71.97
2022-10-19T03:39:32.689Z,72.05
2022-10-19T03:41:59.046Z,72.14
2022-10-19T03:44:25.476Z,72.13
2022-10-19T03:46:51.839Z,72.23
2022-10-19T03:49:18.245Z,72.22
2022-10-19T03:51:44.676Z,72.40
2022-10-19T03:54:14.733Z,72.45
2022-10-19T03:56:42.151Z,72.30
2022-10-19T03:59:08.677Z,72.46
2022-10-19T04:01:41.083Z,72.94
2022-10-19T04:04:11.426Z,72.85
2022-10-19T04:06:40.465Z,73.06
2022-10-19T04:09:08.409Z,72.93
2022-10-19T04:11:35.373Z,73.17
2022-10-19T04:14:02.349Z,73.38
2022-10-19T04:16:30.574Z,73.34
2022-10-19T04:18:57.696Z,73.41
2022-10-19T04:21:27.694Z,73.75
2022-10-19T04:23:58.646Z,74.20
2022-10-19T04:26:25.171Z,73.75
2022-10-19T04:28:51.693Z,73.93
2022-10-19T04:31:18.126Z,74.05
2022-10-19T04:36:12.155Z,74.21
2022-10-19T04:38:39.142Z,74.04
2022-10-19T04:41:08.651Z,74.11
2022-10-19T04:43:35.487Z,74.48
2022-10-19T04:46:10.362Z,75.28
2022-10-19T04:48:38.349Z,74.44
2022-10-19T04:51:05.873Z,74.48
2022-10-19T04:53:33.072Z,74.71
2022-10-19T04:55:59.747Z,74.81
2022-10-19T04:58:27.307Z,74.56
2022-10-19T05:00:53.739Z,74.86
2022-10-19T05:03:20.145Z,74.51
2022-10-19T05:05:46.766Z,74.75
2022-10-19T05:08:13.148Z,74.64
2022-10-19T05:10:41.223Z,74.79
2022-10-19T05:13:09.467Z,74.65
2022-10-19T05:15:38.913Z,75.08
2022-10-19T05:18:05.452Z,74.68
2022-10-19T05:20:31.794Z,74.68
2022-10-19T05:22:58.276Z,74.96
2022-10-19T05:25:24.644Z,75.07
2022-10-19T05:27:52.721Z,75.06
2022-10-19T05:30:21.855Z,74.90
2022-10-19T05:32:48.786Z,74.77
2022-10-19T05:35:21.513Z,75.13
2022-10-19T05:37:48.965Z,75.04
2022-10-19T05:40:15.666Z,75.07
2022-10-19T05:42:45.092Z,75.39
2022-10-19T05:45:11.458Z,74.87
2022-10-19T05:47:37.914Z,74.70
2022-10-19T05:50:04.642Z,74.69
2022-10-19T05:52:31.059Z,74.56
2022-10-19T05:54:58.350Z,74.65
2022-10-19T05:57:25.529Z,74.43
2022-10-19T05:59:52.029Z,74.69
2022-10-19T06:02:18.382Z,74.49
2022-10-19T06:04:44.736Z,74.48
2022-10-19T06:07:11.070Z,74.68
2022-10-19T06:09:37.433Z,74.50
2022-10-19T06:12:04.147Z,74.28
2022-10-19T06:14:30.670Z,74.39
2022-10-19T06:16:57.247Z,74.65
2022-10-19T06:19:23.628Z,74.30
2022-10-19T06:21:49.979Z,74.25
2022-10-19T06:24:16.869Z,74.66
2022-10-19T06:26:43.300Z,75.00
2022-10-19T06:29:10.106Z,74.40
2022-10-19T06:31:37.186Z,74.23
2022-10-19T06:34:05.091Z,74.68
2022-10-19T06:36:32.589Z,74.08
2022-10-19T06:38:59.951Z,74.12
2022-10-19T06:41:26.385Z,74.00
2022-10-19T06:43:53.907Z,74.07
2022-10-19T06:46:24.979Z,74.39
2022-10-19T06:48:52.555Z,73.87
2022-10-19T06:51:19.632Z,73.44
2022-10-19T06:53:46.161Z,73.70
2022-10-19T06:56:12.599Z,73.53
2022-10-19T06:58:40.207Z,73.30
2022-10-19T07:01:07.941Z,73.23
2022-10-19T07:03:35.449Z,73.07
2022-10-19T07:06:04.627Z,72.87
2022-10-19T07:08:32.553Z,73.00
2022-10-19T07:11:01.622Z,73.72
2022-10-19T07:13:29.642Z,72.72
2022-10-19T07:16:07.201Z,73.24
2022-10-19T07:18:35.292Z,72.40
2022-10-19T07:21:05.153Z,72.76
2022-10-19T07:23:34.270Z,72.66
2022-10-19T07:26:05.744Z,72.44
2022-10-19T07:28:32.969Z,72.12
2022-10-19T07:31:04.286Z,72.17
2022-10-19T07:33:30.689Z,71.87
2022-10-19T07:36:06.278Z,72.65
2022-10-19T07:38:33.716Z,71.88
2022-10-19T07:41:12.867Z,72.22
2022-10-19T07:43:40.023Z,71.53
2022-10-19T07:46:11.660Z,72.41
2022-10-19T07:48:38.046Z,71.84
2022-10-19T07:51:07.015Z,71.56
2022-10-19T07:53:34.636Z,71.92
2022-10-19T07:56:08.796Z,71.94
2022-10-19T07:58:36.351Z,72.02
2022-10-19T08:01:02.776Z,71.34
2022-10-19T08:06:19.208Z,71.13
2022-10-19T08:08:46.636Z,70.03
2022-10-19T08:11:15.008Z,69.68
2022-10-19T08:13:41.573Z,69.67
2022-10-19T08:16:22.971Z,69.81
2022-10-19T08:18:49.999Z,68.50
2022-10-19T08:21:16.573Z,68.20
2022-10-19T08:23:43.006Z,68.88
2022-10-19T08:26:09.363Z,68.37
2022-10-19T08:28:35.717Z,68.27
2022-10-19T08:31:17.167Z,68.87
2022-10-19T08:33:44.429Z,67.96
2022-10-19T08:36:12.547Z,68.47
2022-10-19T08:38:39.771Z,67.90
2022-10-19T08:41:15.623Z,68.86
2022-10-19T08:43:55.941Z,68.96
2022-10-19T08:46:44.428Z,67.98
2022-10-19T08:49:15.758Z,67.65
2022-10-19T08:51:44.182Z,67.47
2022-10-19T08:54:17.325Z,67.34
2022-10-19T08:57:11.132Z,66.01
2022-10-19T09:00:04.968Z,66.82
2022-10-19T09:03:05.259Z,66.96
2022-10-19T09:05:35.704Z,67.44
2022-10-19T09:08:02.715Z,65.76
2022-10-19T09:10:34.502Z,66.79
2022-10-19T09:13:06.176Z,65.07
2022-10-19T09:15:42.554Z,64.95
2022-10-19T09:18:19.013Z,64.01
2022-10-19T09:20:49.309Z,64.04
2022-10-19T09:23:21.601Z,65.66
2022-10-19T09:25:50.754Z,63.22
2022-10-19T09:28:43.231Z,63.87
2022-10-19T09:31:21.290Z,63.95
2022-10-19T09:33:55.457Z,63.87
2022-10-19T09:36:33.155Z,63.43
2022-10-19T09:39:12.327Z,63.63
2022-10-19T09:41:50.171Z,64.23
2022-10-19T09:44:17.091Z,63.02
2022-10-19T09:46:55.278Z,64.11
2022-10-19T09:49:44.844Z,63.84
2022-10-19T09:52:30.109Z,62.66
2022-10-19T09:55:23.612Z,61.87
2022-10-19T09:57:58.253Z,60.47
2022-10-19T10:00:42.785Z,60.57
2022-10-19T10:03:25.850Z,59.98
2022-10-19T10:05:53.678Z,58.53
2022-10-19T10:08:23.713Z,56.95
2022-10-19T10:10:59.550Z,57.17
2022-10-19T10:13:28.035Z,54.61
2022-10-19T10:15:57.779Z,54.80
2022-10-19T10:18:26.053Z,55.31
2022-10-19T10:20:59.603Z,52.30
2022-10-19T10:23:31.009Z,50.98
2022-10-19T10:25:58.817Z,50.88
2022-10-19T10:28:28.267Z,49.88
2022-10-19T10:31:01.944Z,50.05
2022-10-19T10:33:44.374Z,48.54
2022-10-19T10:36:12.170Z,47.39
2022-10-19T10:38:41.148Z,48.05
2022-10-19T10:41:20.376Z,48.67
2022-10-19T10:43:59.731Z,49.42
2022-10-19T10:46:34.607Z,49.46
2022-10-19T10:49:16.226Z,50.97
2022-10-19T10:51:53.020Z,51.40
2022-10-19T10:54:25.569Z,52.95
2022-10-19T10:57:06.312Z,53.22
2022-10-19T10:59:44.678Z,53.66
2022-10-19T11:02:18.542Z,51.49
2022-10-19T11:04:52.342Z,51.24
2022-10-19T11:07:23.588Z,52.02
2022-10-19T11:09:56.919Z,50.42
2022-10-19T11:13:08.400Z,49.23
2022-10-19T11:15:44.469Z,46.97
2022-10-19T11:18:10.771Z,46.84
2022-10-19T11:20:42.668Z,46.86
2022-10-19T11:23:30.834Z,46.15
2022-10-19T11:26:15.784Z,45.01
2022-10-19T11:29:06.395Z,44.75
2022-10-19T11:31:32.757Z,44.89
2022-10-19T11:34:26.102Z,47.24
2022-10-19T11:37:06.032Z,46.88
2022-10-19T11:39:53.720Z,47.88
2022-10-19T11:43:07.105Z,47.66
2022-10-19T11:45:45.531Z,48.84
2022-10-19T11:48:38.413Z,50.04
2022-10-19T11:51:37.404Z,49.61
2022-10-19T11:54:41.692Z,49.03
2022-10-19T11:57:24.350Z,50.43
2022-10-19T12:00:15.221Z,49.69
2022-10-19T12:03:03.383Z,48.62
2022-10-19T12:05:39.356Z,49.04
2022-10-19T12:08:40.116Z,47.75
2022-10-19T12:11:23.473Z,47.32
2022-10-19T12:14:00.528Z,45.94
2022-10-19T12:16:41.481Z,45.39
2022-10-19T12:19:16.413Z,45.03
2022-10-19T12:21:44.498Z,44.38
2022-10-19T12:24:16.156Z,43.51
2022-10-19T12:26:44.771Z,41.87
2022-10-19T12:29:22.317Z,42.15
2022-10-19T12:31:50.591Z,42.44
2022-10-19T12:34:36.654Z,42.72
2022-10-19T12:37:41.361Z,41.89
2022-10-19T12:40:25.473Z,43.38
2022-10-19T12:43:12.774Z,42.92
2022-10-19T12:46:13.322Z,43.08
2022-10-19T12:48:39.708Z,43.36
2022-10-19T12:51:16.625Z,42.19
2022-10-19T12:53:48.770Z,40.65
2022-10-19T12:56:24.908Z,41.03
2022-10-19T12:59:01.365Z,40.56
2022-10-19T13:01:43.924Z,42.01
2022-10-19T13:04:16.094Z,40.47
2022-10-19T13:06:51.393Z,41.37
2022-10-19T13:09:45.846Z,43.39
2022-10-19T13:12:21.818Z,41.82
2022-10-19T13:14:53.045Z,39.82
2022-10-19T13:17:37.753Z,42.25
2022-10-19T13:20:13.255Z,40.28
2022-10-19T13:23:03.496Z,38.93
2022-10-19T13:25:35.285Z,40.61
2022-10-19T13:28:07.901Z,40.84
2022-10-19T13:30:44.237Z,40.53
2022-10-19T13:33:28.365Z,39.87
2022-10-19T13:36:00.580Z,38.73
2022-10-19T13:38:30.866Z,38.39
2022-10-19T13:41:05.722Z,38.78
2022-10-19T13:43:37.089Z,38.71
2022-10-19T13:46:18.451Z,38.93
2022-10-19T13:49:06.364Z,39.76
2022-10-19T13:51:52.737Z,39.31
2022-10-19T13:54:24.936Z,39.38
2022-10-19T13:57:11.841Z,38.92
2022-10-19T13:59:44.294Z,37.64
2022-10-19T14:02:32.201Z,39.43
2022-10-19T14:05:14.695Z,38.70
2022-10-19T14:08:19.586Z,38.57
2022-10-19T14:11:00.951Z,39.27
2022-10-19T14:13:28.432Z,39.48
2022-10-19T14:15:57.327Z,39.10
2022-10-19T14:18:27.581Z,39.12
2022-10-19T14:21:06.355Z,39.91
2022-10-19T14:23:35.288Z,38.89
2022-10-19T14:26:05.240Z,39.06
2022-10-19T14:28:33.312Z,39.22
2022-10-19T14:31:01.137Z,40.39
2022-10-19T14:33:33.918Z,41.01
2022-10-19T14:36:00.580Z,39.31
2022-10-19T14:38:34.496Z,39.88
2022-10-19T14:41:07.008Z,42.44
2022-10-19T14:43:35.360Z,42.38
2022-10-19T14:46:08.144Z,43.39
2022-10-19T14:48:46.452Z,44.38
2022-10-19T14:51:30.295Z,44.76
2022-10-19T14:53:59.059Z,44.98
2022-10-19T14:56:59.653Z,46.57
2022-10-19T14:59:36.277Z,47.37
2022-10-19T15:02:31.490Z,48.48
2022-10-19T15:05:09.463Z,49.58
2022-10-19T15:07:51.591Z,50.55
2022-10-19T15:10:34.938Z,50.45
2022-10-19T15:13:11.627Z,51.65
2022-10-19T15:15:41.714Z,52.84
2022-10-19T15:18:43.967Z,53.39
2022-10-19T15:21:25.453Z,53.58
2022-10-19T15:24:07.679Z,53.96
2022-10-19T15:26:44.950Z,56.30
2022-10-19T15:29:26.981Z,56.31
2022-10-19T15:32:15.698Z,56.52
2022-10-19T15:34:53.336Z,57.22
2022-10-19T15:39:57.472Z,57.42
2022-10-19T15:42:44.862Z,57.24
2022-10-19T15:45:38.020Z,58.25
2022-10-19T15:48:20.818Z,58.63
2022-10-19T15:50:52.186Z,58.49
2022-10-19T15:53:40.890Z,58.67
2022-10-19T15:56:17.449Z,57.99
2022-10-19T15:58:50.107Z,58.43
2022-10-19T16:01:20.816Z,58.85
2022-10-19T16:04:03.515Z,59.43
2022-10-19T16:06:40.005Z,59.06
2022-10-19T16:09:22.525Z,59.48
2022-10-19T16:11:57.051Z,59.84
2022-10-19T16:14:29.175Z,60.45
2022-10-19T16:17:02.682Z,61.32
2022-10-19T16:19:33.453Z,60.59
2022-10-19T16:22:07.200Z,61.86
2022-10-19T16:24:34.762Z,62.23
2022-10-19T16:27:01.930Z,61.63
2022-10-19T16:29:29.853Z,62.62
2022-10-19T16:31:57.198Z,62.62
2022-10-19T16:34:24.270Z,62.76
2022-10-19T16:36:51.399Z,63.63
2022-10-19T16:39:30.192Z,64.06
2022-10-19T16:42:00.503Z,64.50
2022-10-19T16:44:30.152Z,62.59
2022-10-19T16:46:57.304Z,64.45
2022-10-19T16:49:24.153Z,65.41
2022-10-19T16:51:53.252Z,66.08
2022-10-19T16:54:32.886Z,66.32
2022-10-19T16:56:59.314Z,66.88
2022-10-19T16:59:25.679Z,67.73
2022-10-19T17:01:52.154Z,68.26
2022-10-19T17:04:18.855Z,68.37
2022-10-19T17:06:45.378Z,68.88
2022-10-19T17:09:40.272Z,69.09
2022-10-19T17:11:58.086Z,69.04
2022-10-19T17:14:24.416Z,69.65
2022-10-19T17:16:50.761Z,70.23
2022-10-19T17:19:17.150Z,71.08
2022-10-19T17:21:43.521Z,71.21
2022-10-19T17:24:20.232Z,72.15
2022-10-19T17:26:48.297Z,72.30
2022-10-19T17:29:14.674Z,72.48
2022-10-19T17:31:42.107Z,72.79
2022-10-19T17:34:09.353Z,73.01
2022-10-19T17:39:09.659Z,74.33
2022-10-19T17:41:36.072Z,74.49
2022-10-19T17:44:04.297Z,75.31
2022-10-19T17:46:33.360Z,75.43
2022-10-19T17:48:59.861Z,75.85
2022-10-19T17:51:29.304Z,76.37
2022-10-19T17:53:58.451Z,76.09
2022-10-19T17:56:25.860Z,76.36
2022-10-19T17:58:55.963Z,76.42
2022-10-19T18:01:23.625Z,76.55
2022-10-19T18:03:50.476Z,77.03
2022-10-19T18:06:31.427Z,77.53
2022-10-19T18:08:59.583Z,77.17
2022-10-19T18:11:28.061Z,78.30
2022-10-19T18:13:56.862Z,77.78
2022-10-19T18:16:26.383Z,77.95
2022-10-19T18:18:55.423Z,77.69
2022-10-19T18:21:25.647Z,78.22
2022-10-19T18:23:53.355Z,76.55
2022-10-19T18:26:22.586Z,77.52
2022-10-19T18:28:51.002Z,78.06
2022-10-19T18:31:20.517Z,78.63
2022-10-19T18:33:48.562Z,78.56
2022-10-19T18:36:15.263Z,78.84
2022-10-19T18:38:42.064Z,79.06
2022-10-19T18:43:49.665Z,79.07
2022-10-19T18:46:18.945Z,79.62
2022-10-19T18:48:45.870Z,79.31
2022-10-19T18:51:13.045Z,79.63
2022-10-19T18:53:39.422Z,79.77
2022-10-19T18:56:08.107Z,79.95
2022-10-19T18:58:35.320Z,80.28
2022-10-19T19:01:09.759Z,80.56
2022-10-19T19:03:38.270Z,80.60
2022-10-19T19:06:13.345Z,80.82
2022-10-19T19:08:40.015Z,80.73
2022-10-19T19:11:12.141Z,81.34
2022-10-19T19:13:39.377Z,81.17
2022-10-19T19:16:07.097Z,81.48
2022-10-19T19:18:34.738Z,81.57
2022-10-19T19:21:02.471Z,81.72
2022-10-19T19:23:29.540Z,81.52
2022-10-19T19:25:56.255Z,81.59
2022-10-19T19:28:22.760Z,82.07
2022-10-19T19:30:49.180Z,82.33
2022-10-19T19:33:15.558Z,82.45
2022-10-19T19:35:46.247Z,83.28
2022-10-19T19:38:14.952Z,83.13
2022-10-19T19:40:43.719Z,83.10
2022-10-19T19:43:11.339Z,83.65
2022-10-19T19:45:38.411Z,83.48
2022-10-19T19:48:06.755Z,83.83
2022-10-19T19:50:34.539Z,83.87
2022-10-19T19:53:01.872Z,83.73
2022-10-19T19:55:28.680Z,83.29
2022-10-19T19:57:55.342Z,83.65
2022-10-19T20:00:22.835Z,83.80
2022-10-19T20:02:56.552Z,84.52
2022-10-19T20:05:24.408Z,83.97
2022-10-19T20:07:51.486Z,84.24
2022-10-19T20:10:18.274Z,84.59
2022-10-19T20:12:46.397Z,84.31
2022-10-19T20:15:15.705Z,84.58
2022-10-19T20:17:42.399Z,84.16
2022-10-19T20:20:10.975Z,84.54
2022-10-19T20:22:38.176Z,84.85
2022-10-19T20:25:05.366Z,84.67
2022-10-19T20:27:35.476Z,85.01
2022-10-19T20:30:01.926Z,84.39
2022-10-19T20:32:29.469Z,84.40
2022-10-19T20:34:55.996Z,84.39
2022-10-19T20:37:22.670Z,84.67
2022-10-19T20:39:49.875Z,84.70
2022-10-19T20:42:18.121Z,84.91
2022-10-19T20:44:44.944Z,84.96
2022-10-19T20:47:11.865Z,85.15
2022-10-19T20:49:41.342Z,85.47
2022-10-19T20:52:10.858Z,85.34
2022-10-19T20:54:37.217Z,85.11
2022-10-19T20:57:03.809Z,85.13
2022-10-19T20:59:31.467Z,84.83
2022-10-19T21:01:57.979Z,84.84
2022-10-19T21:04:25.571Z,84.98
2022-10-19T21:06:52.492Z,84.93
2022-10-19T21:09:23.062Z,84.89
2022-10-19T21:11:51.298Z,85.13
2022-10-19T21:14:23.757Z,85.09
2022-10-19T21:16:53.823Z,84.79
2022-10-19T21:19:25.563Z,85.30
2022-10-19T21:21:57.960Z,85.07
2022-10-19T21:24:27.414Z,85.11
2022-10-19T21:26:54.128Z,84.74
2022-10-19T21:29:20.974Z,84.79
2022-10-19T21:31:49.806Z,85.16
2022-10-19T21:34:23.195Z,85.27
2022-10-19T21:36:49.896Z,85.11
2022-10-19T21:39:17.020Z,85.17
2022-10-19T21:41:43.639Z,85.22
2022-10-19T21:44:10.116Z,85.24
2022-10-19T21:46:36.703Z,85.29
2022-10-19T21:49:03.660Z,85.66
2022-10-19T21:51:30.181Z,85.93
2022-10-19T21:53:56.668Z,86.03
2022-10-19T21:56:23.935Z,85.92
2022-10-19T21:58:53.310Z,85.95
2022-10-19T22:01:22.339Z,86.05
2022-10-19T22:03:48.879Z,86.08
2022-10-19T22:06:15.424Z,86.23
2022-10-19T22:08:48.165Z,86.49
2022-10-19T22:11:14.998Z,86.37
2022-10-19T22:13:41.991Z,86.17
2022-10-19T22:16:14.474Z,86.62
2022-10-19T22:18:41.394Z,86.23
2022-10-19T22:21:25.822Z,86.10
2022-10-19T22:23:54.227Z,86.20
2022-10-19T22:26:23.695Z,86.30
2022-10-19T22:28:50.303Z,86.62
2022-10-19T22:31:17.030Z,86.33
2022-10-19T22:33:43.585Z,86.67
2022-10-19T22:36:11.414Z,86.57
2022-10-19T22:38:37.871Z,86.92
2022-10-19T22:41:04.248Z,87.45
2022-10-19T22:43:30.717Z,87.84
2022-10-19T22:45:57.118Z,87.85
2022-10-19T22:48:23.503Z,88.20
2022-10-19T22:50:53.175Z,88.28
2022-10-19T22:53:20.203Z,88.53
2022-10-19T22:55:46.615Z,88.31
2022-10-19T22:58:13.076Z,88.79
2022-10-19T23:00:39.750Z,88.40
2022-10-19T23:03:06.095Z,88.99
2022-10-19T23:05:32.539Z,89.07
2022-10-19T23:07:58.956Z,89.51
2022-10-19T23:10:25.769Z,89.61
2022-10-19T23:12:53.319Z,89.77
2022-10-19T23:15:21.340Z,89.56
2022-10-19T23:17:47.905Z,89.50
2022-10-19T23:20:14.661Z,89.30
2022-10-19T23:22:41.205Z,89.44
2022-10-19T23:25:08.441Z,89.63
2022-10-19T23:27:35.289Z,89.56
2022-10-19T23:30:02.842Z,89.89
2022-10-19T23:32:29.217Z,89.19
2022-10-19T23:34:58.451Z,89.29
2022-10-19T23:37:24.845Z,88.79
2022-10-19T23:39:51.225Z,88.58
2022-10-19T23:42:17.659Z,88.53
2022-10-19T23:44:44.026Z,88.77
2022-10-19T23:47:10.740Z,88.44
2022-10-19T23:49:37.178Z,88.51
2022-10-19T23:52:03.602Z,88.58
2022-10-19T23:54:29.933Z,88.82
2022-10-19T23:56:56.319Z,89.28
2022-10-19T23:59:22.850Z,89.14
